createdAt,value
2022-12-16T00:03:55.158Z,55.97
2022-12-16T00:06:25.104Z,57.90
2022-12-16T00:08:52.433Z,55.55
2022-12-16T00:11:20.352Z,59.15
2022-12-16T00:13:48.118Z,66.28
2022-12-16T00:16:17.307Z,65.30
2022-12-16T00:18:45.214Z,63.97
2022-12-16T00:21:12.690Z,62.88
2022-12-16T00:23:41.508Z,64.15
2022-12-16T00:26:09.497Z,64.78
2022-12-16T00:28:37.288Z,63.97
2022-12-16T00:31:04.615Z,64.97
2022-12-16T00:33:32.359Z,63.45
2022-12-16T00:35:59.372Z,63.15
2022-12-16T00:38:27.237Z,63.97
2022-12-16T00:40:54.536Z,61.10
2022-12-16T00:43:22.240Z,61.00
2022-12-16T00:45:49.763Z,62.03
2022-12-16T00:48:19.141Z,58.20
2022-12-16T00:50:55.084Z,60.00
2022-12-16T00:53:23.659Z,59.15
2022-12-16T00:55:51.505Z,60.08
2022-12-16T00:58:18.947Z,57.33
2022-12-16T01:00:45.605Z,54.97
2022-12-16T01:03:18.007Z,60.08
2022-12-16T01:05:48.676Z,57.22
2022-12-16T01:08:15.729Z,57.00
2022-12-16T01:10:42.478Z,56.05
2022-12-16T01:13:09.521Z,57.58
2022-12-16T01:15:37.901Z,59.70
2022-12-16T01:18:04.926Z,55.42
2022-12-16T01:20:33.464Z,57.33
2022-12-16T01:23:00.316Z,56.35
2022-12-16T01:25:27.950Z,55.65
2022-12-16T01:27:54.602Z,56.10
2022-12-16T01:30:23.307Z,56.53
2022-12-16T01:32:50.248Z,53.97
2022-12-16T01:35:50.923Z,53.53
2022-12-16T01:38:05.142Z,54.15
2022-12-16T01:40:31.942Z,55.85
2022-12-16T01:42:58.881Z,52.30
2022-12-16T01:45:30.756Z,53.33
2022-12-16T01:48:02.748Z,52.37
2022-12-16T01:50:31.532Z,53.30
2022-12-16T01:53:01.083Z,54.72
2022-12-16T01:55:33.377Z,52.42
2022-12-16T01:58:06.984Z,53.78
2022-12-16T02:00:34.886Z,55.13
2022-12-16T02:03:02.525Z,54.20
2022-12-16T02:05:30.162Z,54.03
2022-12-16T02:08:04.611Z,53.45
2022-12-16T02:10:44.054Z,54.95
2022-12-16T02:13:43.786Z,50.78
2022-12-16T02:16:22.856Z,53.70
2022-12-16T02:19:04.938Z,51.45
2022-12-16T02:21:43.590Z,54.10
2022-12-16T02:24:48.462Z,51.05
2022-12-16T02:27:21.131Z,50.60
2022-12-16T02:30:19.731Z,51.53
2022-12-16T02:33:06.795Z,49.72
2022-12-16T02:35:59.111Z,51.33
2022-12-16T02:38:56.027Z,50.92
2022-12-16T02:41:37.487Z,51.33
2022-12-16T02:44:10.584Z,52.97
2022-12-16T02:46:52.803Z,51.05
2022-12-16T02:49:22.857Z,55.38
2022-12-16T02:51:49.985Z,55.15
2022-12-16T02:54:18.122Z,51.35
2022-12-16T02:56:52.090Z,53.75
2022-12-16T02:59:35.941Z,55.22
2022-12-16T03:02:10.446Z,54.35
2022-12-16T03:04:48.939Z,59.08
2022-12-16T03:07:18.440Z,52.53
2022-12-16T03:09:47.775Z,55.72
2022-12-16T03:12:17.922Z,55.25
2022-12-16T03:14:48.912Z,54.55
2022-12-16T03:17:18.497Z,53.85
2022-12-16T03:19:53.519Z,55.40
2022-12-16T03:22:27.654Z,53.50
2022-12-16T03:24:55.421Z,53.20
2022-12-16T03:27:35.856Z,54.38
2022-12-16T03:30:06.976Z,53.95
2022-12-16T03:32:48.397Z,53.38
2022-12-16T03:35:26.966Z,53.17
2022-12-16T03:37:57.633Z,56.03
2022-12-16T03:40:26.881Z,53.13
2022-12-16T03:42:55.291Z,57.92
2022-12-16T03:45:51.639Z,56.42
2022-12-16T03:48:23.470Z,55.90
2022-12-16T03:50:50.105Z,56.35
2022-12-16T03:53:17.646Z,53.90
2022-12-16T03:55:44.602Z,56.33
2022-12-16T03:58:11.471Z,53.45
2022-12-16T04:00:38.734Z,55.25
2022-12-16T04:03:05.583Z,55.25
2022-12-16T04:05:33.110Z,55.47
2022-12-16T04:08:02.298Z,55.38
2022-12-16T04:10:49.092Z,55.58
2022-12-16T04:13:34.971Z,52.40
2022-12-16T04:16:20.592Z,50.50
2022-12-16T04:19:07.081Z,55.00
2022-12-16T04:21:52.426Z,53.80
2022-12-16T04:24:21.042Z,54.97
2022-12-16T04:27:11.802Z,56.63
2022-12-16T04:30:00.814Z,53.88
2022-12-16T04:32:27.699Z,51.50
2022-12-16T04:34:54.914Z,52.50
2022-12-16T04:37:40.119Z,55.05
2022-12-16T04:40:26.797Z,53.38
2022-12-16T04:43:12.231Z,53.38
2022-12-16T04:45:58.536Z,52.80
2022-12-16T04:48:47.172Z,53.00
2022-12-16T04:51:32.483Z,52.00
2022-12-16T04:54:18.345Z,53.17
2022-12-16T04:57:03.640Z,53.92
2022-12-16T04:59:49.428Z,53.75
2022-12-16T05:02:51.672Z,52.00
2022-12-16T05:05:37.325Z,52.50
2022-12-16T05:08:22.673Z,51.72
2022-12-16T05:11:08.435Z,50.83
2022-12-16T05:14:04.772Z,51.05
2022-12-16T05:16:50.201Z,51.33
2022-12-16T05:19:36.009Z,48.38
2022-12-16T05:22:21.360Z,50.55
2022-12-16T05:25:07.065Z,50.80
2022-12-16T05:27:52.469Z,50.22
2022-12-16T05:30:38.725Z,49.92
2022-12-16T05:33:23.921Z,52.45
2022-12-16T05:36:09.903Z,48.72
2022-12-16T05:38:55.483Z,51.25
2022-12-16T05:41:41.011Z,50.80
2022-12-16T05:44:26.862Z,50.45
2022-12-16T05:47:11.973Z,50.58
2022-12-16T05:50:02.333Z,51.63
2022-12-16T05:52:47.903Z,51.60
2022-12-16T05:55:34.296Z,49.53
2022-12-16T05:58:19.574Z,50.83
2022-12-16T06:01:05.340Z,54.60
2022-12-16T06:03:50.931Z,50.78
2022-12-16T06:06:36.754Z,51.58
2022-12-16T06:09:21.901Z,52.70
2022-12-16T06:12:08.689Z,54.17
2022-12-16T06:14:54.038Z,52.35
2022-12-16T06:17:40.375Z,54.10
2022-12-16T06:20:26.813Z,53.30
2022-12-16T06:23:13.294Z,55.08
2022-12-16T06:25:59.588Z,54.58
2022-12-16T06:28:46.103Z,57.60
2022-12-16T06:31:32.443Z,59.10
2022-12-16T06:34:17.591Z,57.08
2022-12-16T06:37:03.447Z,56.30
2022-12-16T06:39:52.769Z,55.53
2022-12-16T06:42:38.901Z,55.72
2022-12-16T06:45:26.962Z,54.42
2022-12-16T06:48:15.568Z,54.55
2022-12-16T06:51:01.242Z,55.83
2022-12-16T06:53:46.672Z,53.15
2022-12-16T06:56:32.417Z,53.00
2022-12-16T06:59:17.732Z,54.40
2022-12-16T07:02:04.022Z,53.55
2022-12-16T07:04:49.202Z,54.25
2022-12-16T07:07:34.937Z,51.38
2022-12-16T07:10:25.369Z,53.33
2022-12-16T07:13:10.381Z,56.22
2022-12-16T07:15:56.197Z,51.75
2022-12-16T07:18:41.421Z,55.92
2022-12-16T07:21:27.350Z,54.90
2022-12-16T07:24:12.845Z,50.33
2022-12-16T07:26:58.685Z,53.42
2022-12-16T07:29:44.118Z,53.58
2022-12-16T07:32:29.898Z,52.88
2022-12-16T07:35:15.747Z,52.85
2022-12-16T07:38:01.150Z,53.95
2022-12-16T07:40:46.921Z,51.53
2022-12-16T07:43:32.752Z,51.05
2022-12-16T07:46:18.943Z,52.72
2022-12-16T07:49:23.948Z,55.08
2022-12-16T07:52:09.948Z,58.47
2022-12-16T07:54:55.736Z,57.20
2022-12-16T07:57:40.864Z,52.67
2022-12-16T08:00:26.931Z,51.80
2022-12-16T08:03:13.219Z,54.85
2022-12-16T08:05:59.041Z,52.55
2022-12-16T08:08:44.357Z,52.58
2022-12-16T08:11:30.037Z,52.50
2022-12-16T08:14:15.391Z,54.10
2022-12-16T08:17:01.340Z,53.60
2022-12-16T08:19:46.505Z,54.50
2022-12-16T08:22:32.490Z,55.38
2022-12-16T08:25:18.308Z,53.08
2022-12-16T08:28:03.830Z,53.65
2022-12-16T08:30:49.810Z,52.92
2022-12-16T08:33:35.492Z,52.35
2022-12-16T08:36:21.870Z,54.40
2022-12-16T08:39:07.285Z,53.20
2022-12-16T08:41:53.270Z,54.28
2022-12-16T08:44:39.417Z,55.03
2022-12-16T08:47:25.218Z,54.95
2022-12-16T08:50:10.594Z,54.22
2022-12-16T08:52:56.474Z,53.40
2022-12-16T08:55:42.091Z,55.97
2022-12-16T08:58:27.566Z,52.00
2022-12-16T09:01:13.315Z,50.63
2022-12-16T09:03:58.677Z,49.40
2022-12-16T09:06:44.503Z,53.40
2022-12-16T09:09:29.816Z,73.32
2022-12-16T09:12:15.923Z,63.33
2022-12-16T09:15:01.156Z,53.97
2022-12-16T09:17:46.409Z,52.40
2022-12-16T09:20:32.207Z,50.53
2022-12-16T09:23:21.085Z,57.88
2022-12-16T09:26:07.098Z,56.15
2022-12-16T09:28:52.508Z,58.65
2022-12-16T09:31:39.014Z,52.65
2022-12-16T09:34:24.151Z,50.78
2022-12-16T09:37:10.277Z,52.35
2022-12-16T09:39:55.695Z,53.10
2022-12-16T09:43:03.384Z,51.65
2022-12-16T09:46:12.662Z,53.08
2022-12-16T09:49:29.542Z,52.40
2022-12-16T09:52:18.600Z,52.90
2022-12-16T09:55:05.021Z,50.65
2022-12-16T09:57:54.541Z,51.92
2022-12-16T10:00:47.406Z,50.03
2022-12-16T10:03:45.760Z,51.53
2022-12-16T10:06:50.154Z,52.17
2022-12-16T10:10:08.646Z,50.88
2022-12-16T10:13:09.471Z,52.78
2022-12-16T10:16:09.727Z,53.47
2022-12-16T10:19:19.881Z,51.40
2022-12-16T10:22:18.448Z,51.58
2022-12-16T10:25:10.360Z,51.42
2022-12-16T10:28:07.495Z,52.50
2022-12-16T10:30:56.745Z,54.47
2022-12-16T10:33:47.283Z,57.40
2022-12-16T10:36:40.474Z,61.08
2022-12-16T10:39:42.323Z,54.13
2022-12-16T10:42:47.848Z,54.35
2022-12-16T10:45:42.977Z,51.30
2022-12-16T10:48:30.636Z,54.35
2022-12-16T10:51:18.858Z,54.15
2022-12-16T10:54:09.705Z,53.35
2022-12-16T10:57:12.416Z,56.03
2022-12-16T11:00:00.135Z,55.90
2022-12-16T11:02:47.271Z,53.00
2022-12-16T11:05:48.188Z,53.40
2022-12-16T11:08:55.672Z,58.90
2022-12-16T11:11:46.685Z,57.10
2022-12-16T11:15:05.415Z,54.67
2022-12-16T11:17:48.169Z,59.47
2022-12-16T11:20:33.803Z,54.22
2022-12-16T11:23:43.979Z,54.42
2022-12-16T11:26:34.574Z,58.25
2022-12-16T11:29:23.265Z,57.22
2022-12-16T11:32:14.142Z,54.38
2022-12-16T11:35:02.110Z,55.92
2022-12-16T11:37:49.718Z,59.63
2022-12-16T11:40:37.223Z,58.10
2022-12-16T11:43:24.159Z,55.67
2022-12-16T11:46:10.979Z,56.10
2022-12-16T11:49:19.288Z,54.70
2022-12-16T11:59:05.369Z,53.85
2022-12-16T12:02:14.171Z,57.05
2022-12-16T12:04:59.823Z,57.45
2022-12-16T12:08:15.295Z,55.40
2022-12-16T12:11:37.364Z,56.85
2022-12-16T12:14:43.207Z,61.20
2022-12-16T12:18:18.947Z,57.72
2022-12-16T12:21:16.857Z,57.53
2022-12-16T12:24:07.528Z,57.78
2022-12-16T12:26:57.408Z,61.75
2022-12-16T12:30:02.764Z,65.47
2022-12-16T12:32:54.652Z,69.75
2022-12-16T12:38:57.143Z,68.47
2022-12-16T12:41:44.990Z,74.63
2022-12-16T12:44:49.087Z,74.88
2022-12-16T12:47:35.922Z,72.15
2022-12-16T12:50:50.549Z,71.40
2022-12-16T12:53:48.394Z,68.43
2022-12-16T12:56:53.610Z,73.57
2022-12-16T13:00:17.980Z,81.57
2022-12-16T13:03:17.293Z,75.25
2022-12-16T13:06:03.029Z,73.80
2022-12-16T13:09:05.118Z,74.93
2022-12-16T13:11:50.511Z,70.43
2022-12-16T13:14:51.767Z,72.78
2022-12-16T13:17:39.472Z,71.47
2022-12-16T13:20:54.459Z,70.35
2022-12-16T13:23:50.433Z,67.72
2022-12-16T13:26:38.426Z,66.68
2022-12-16T13:29:40.659Z,64.60
2022-12-16T13:32:25.916Z,64.55
2022-12-16T13:35:27.015Z,67.35
2022-12-16T13:38:17.961Z,66.55
2022-12-16T13:41:15.633Z,69.07
2022-12-16T13:44:08.253Z,67.93
2022-12-16T13:47:10.991Z,49.92
2022-12-16T13:50:06.837Z,66.93
2022-12-16T13:53:18.574Z,68.68
2022-12-16T13:56:10.591Z,65.80
2022-12-16T13:59:22.819Z,65.70
2022-12-16T14:02:20.558Z,65.35
2022-12-16T14:05:12.766Z,68.60
2022-12-16T14:07:59.211Z,68.68
2022-12-16T14:10:52.790Z,71.32
2022-12-16T14:16:54.527Z,75.97
2022-12-16T14:19:44.385Z,77.85
2022-12-16T14:22:32.530Z,76.82
2022-12-16T14:25:35.370Z,78.63
2022-12-16T14:28:41.674Z,76.53
2022-12-16T14:31:50.689Z,72.00
2022-12-16T14:34:41.018Z,68.80
2022-12-16T14:37:38.132Z,67.75
2022-12-16T14:40:38.433Z,70.53
2022-12-16T14:43:39.935Z,71.95
2022-12-16T14:46:45.939Z,76.18
2022-12-16T14:49:39.249Z,72.40
2022-12-16T14:52:55.370Z,73.28
2022-12-16T14:55:52.643Z,76.80
2022-12-16T14:58:40.642Z,93.57
2022-12-16T15:01:44.841Z,75.47
2022-12-16T15:04:49.246Z,84.13
2022-12-16T15:07:34.721Z,82.00
2022-12-16T15:10:21.114Z,72.10
2022-12-16T15:13:07.937Z,71.07
2022-12-16T15:16:21.081Z,71.72
2022-12-16T15:19:16.088Z,72.35
2022-12-16T15:22:02.589Z,78.63
2022-12-16T15:24:54.492Z,72.50
2022-12-16T15:27:39.839Z,74.53
2022-12-16T15:31:02.910Z,73.72
2022-12-16T15:33:54.240Z,79.80
2022-12-16T15:36:52.710Z,84.18
2022-12-16T15:39:59.818Z,86.28
2022-12-16T15:42:51.791Z,85.40
2022-12-16T15:45:50.065Z,83.37
2022-12-16T15:48:45.586Z,77.65
2022-12-16T15:52:00.154Z,77.03
2022-12-16T15:54:45.360Z,73.03
2022-12-16T15:57:50.840Z,75.72
2022-12-16T16:00:49.594Z,77.00
2022-12-16T16:03:39.565Z,76.95
2022-12-16T16:06:36.799Z,72.25
2022-12-16T16:09:38.656Z,78.43
2022-12-16T16:12:24.340Z,78.63
2022-12-16T16:15:09.797Z,78.35
2022-12-16T16:17:54.948Z,78.97
2022-12-16T16:20:40.071Z,81.00
2022-12-16T16:23:26.932Z,79.72
2022-12-16T16:26:12.306Z,82.18
2022-12-16T16:28:59.336Z,80.45
2022-12-16T16:31:44.456Z,84.72
2022-12-16T16:34:30.116Z,82.63
2022-12-16T16:37:17.188Z,81.35
2022-12-16T16:40:03.214Z,81.90
2022-12-16T16:42:49.679Z,80.30
2022-12-16T16:45:34.912Z,79.57
2022-12-16T16:48:34.644Z,80.43
2022-12-16T16:51:41.870Z,81.40
2022-12-16T16:54:26.849Z,83.75
2022-12-16T16:57:12.100Z,80.30
2022-12-16T16:59:57.537Z,81.63
2022-12-16T17:02:44.068Z,81.63
2022-12-16T17:05:30.649Z,80.35
2022-12-16T17:08:16.201Z,77.40
2022-12-16T17:11:02.195Z,80.95
2022-12-16T17:13:47.416Z,80.95
2022-12-16T17:16:36.655Z,78.30
2022-12-16T17:19:21.874Z,81.15
2022-12-16T17:22:07.543Z,77.25
2022-12-16T17:24:54.571Z,99.05
2022-12-16T17:27:43.204Z,92.25
2022-12-16T17:30:44.957Z,86.82
2022-12-16T17:33:34.411Z,82.95
2022-12-16T17:36:20.599Z,82.47
2022-12-16T17:39:06.034Z,83.43
2022-12-16T17:41:53.079Z,79.53
2022-12-16T17:44:38.448Z,75.63
2022-12-16T17:47:24.396Z,78.95
2022-12-16T17:50:10.390Z,76.20
2022-12-16T17:52:55.755Z,76.20
2022-12-16T17:55:41.469Z,81.45
2022-12-16T17:58:27.496Z,72.60
2022-12-16T18:01:20.757Z,71.93
2022-12-16T18:04:07.140Z,73.40
2022-12-16T18:06:53.340Z,72.30
2022-12-16T18:09:38.753Z,71.60
2022-12-16T18:12:24.605Z,73.13
2022-12-16T18:15:09.945Z,72.25
2022-12-16T18:17:55.336Z,72.43
2022-12-16T18:20:41.109Z,72.07
2022-12-16T18:23:26.217Z,71.32
2022-12-16T18:26:20.171Z,72.22
2022-12-16T18:29:05.477Z,73.40
2022-12-16T18:31:51.856Z,74.50
2022-12-16T18:34:37.556Z,69.82
2022-12-16T18:37:23.199Z,70.50
2022-12-16T18:40:08.524Z,72.30
2022-12-16T18:42:54.230Z,74.45
2022-12-16T18:45:39.929Z,71.32
2022-12-16T18:48:24.978Z,74.45
2022-12-16T18:51:18.658Z,74.50
2022-12-16T18:54:04.598Z,72.30
2022-12-16T18:56:50.413Z,71.75
2022-12-16T18:59:35.679Z,71.10
2022-12-16T19:02:21.652Z,71.72
2022-12-16T19:05:06.909Z,69.88
2022-12-16T19:08:03.245Z,71.20
2022-12-16T19:10:49.123Z,66.55
2022-12-16T19:13:34.303Z,62.55
2022-12-16T19:16:21.938Z,67.53
2022-12-16T19:19:19.617Z,66.88
2022-12-16T19:22:06.621Z,65.28
2022-12-16T19:24:52.053Z,66.47
2022-12-16T19:27:37.909Z,66.72
2022-12-16T19:30:23.669Z,68.97
2022-12-16T19:33:09.230Z,68.88
2022-12-16T19:35:55.060Z,66.72
2022-12-16T19:38:42.351Z,63.70
2022-12-16T19:41:36.402Z,60.13
2022-12-16T19:44:22.843Z,57.72
2022-12-16T19:47:09.241Z,57.88
2022-12-16T19:49:54.987Z,142.43
2022-12-16T19:52:42.045Z,73.97
2022-12-16T19:55:27.804Z,88.82
2022-12-16T19:58:13.092Z,67.82
2022-12-16T20:00:58.770Z,63.47
2022-12-16T20:03:44.846Z,61.58
2022-12-16T20:06:31.413Z,60.30
2022-12-16T20:09:17.399Z,58.83
2022-12-16T20:12:02.896Z,59.72
2022-12-16T20:14:48.778Z,60.85
2022-12-16T20:17:33.950Z,61.13
2022-12-16T20:20:19.387Z,59.03
2022-12-16T20:23:04.931Z,60.92
2022-12-16T20:25:50.408Z,65.60
2022-12-16T20:28:35.874Z,62.17
2022-12-16T20:31:21.958Z,58.08
2022-12-16T20:34:14.560Z,60.97
2022-12-16T20:37:00.179Z,57.20
2022-12-16T20:39:52.946Z,58.42
2022-12-16T20:42:46.219Z,60.47
2022-12-16T20:45:32.139Z,86.05
2022-12-16T20:48:17.348Z,71.68
2022-12-16T20:51:02.471Z,69.88
2022-12-16T20:53:47.932Z,67.53
2022-12-16T20:56:33.660Z,64.20
2022-12-16T20:59:19.134Z,65.60
2022-12-16T21:05:09.557Z,64.40
2022-12-16T21:07:55.019Z,71.57
2022-12-16T21:10:42.804Z,66.78
2022-12-16T21:13:30.675Z,67.25
2022-12-16T21:16:18.045Z,65.63
2022-12-16T21:19:03.708Z,65.60
2022-12-16T21:21:49.580Z,60.90
2022-12-16T21:24:35.386Z,63.28
2022-12-16T21:27:20.754Z,62.50
2022-12-16T21:30:06.114Z,61.55
2022-12-16T21:32:51.562Z,64.35
2022-12-16T21:35:39.905Z,67.18
2022-12-16T21:38:43.757Z,63.63
2022-12-16T21:41:29.857Z,63.92
2022-12-16T21:44:15.530Z,64.82
2022-12-16T21:47:00.898Z,62.97
2022-12-16T21:49:46.711Z,64.57
2022-12-16T21:52:31.723Z,59.45
2022-12-16T21:55:17.646Z,64.22
2022-12-16T21:58:03.126Z,68.18
2022-12-16T22:00:50.312Z,63.35
2022-12-16T22:03:38.737Z,63.80
2022-12-16T22:06:25.058Z,62.05
2022-12-16T22:09:10.911Z,63.35
2022-12-16T22:11:56.391Z,70.25
2022-12-16T22:14:42.220Z,78.72
2022-12-16T22:17:27.755Z,76.72
2022-12-16T22:20:13.905Z,72.53
2022-12-16T22:22:59.046Z,64.13
2022-12-16T22:25:45.096Z,67.70
2022-12-16T22:28:30.187Z,69.15
2022-12-16T22:31:16.662Z,66.50
2022-12-16T22:34:02.689Z,65.65
2022-12-16T22:36:48.457Z,67.60
2022-12-16T22:39:33.680Z,65.03
2022-12-16T22:42:19.609Z,64.95
2022-12-16T22:45:05.465Z,63.17
2022-12-16T22:47:51.005Z,66.43
2022-12-16T22:50:37.653Z,64.43
2022-12-16T22:53:23.153Z,66.97
2022-12-16T22:56:13.199Z,65.80
2022-12-16T22:58:59.350Z,65.38
2022-12-16T23:01:45.689Z,63.83
2022-12-16T23:04:31.008Z,63.90
2022-12-16T23:07:16.762Z,64.85
2022-12-16T23:10:02.617Z,62.95
2022-12-16T23:12:47.994Z,64.55
2022-12-16T23:15:33.822Z,60.80
2022-12-16T23:18:19.309Z,61.90
2022-12-16T23:21:09.835Z,63.33
2022-12-16T23:23:56.902Z,64.15
2022-12-16T23:26:43.475Z,65.60
2022-12-16T23:29:30.892Z,66.70
2022-12-16T23:32:16.100Z,65.90
2022-12-16T23:35:01.815Z,63.88
2022-12-16T23:37:46.947Z,68.00
2022-12-16T23:40:32.823Z,69.10
2022-12-16T23:43:18.360Z,66.28
2022-12-16T23:46:04.071Z,68.97
2022-12-16T23:48:49.880Z,68.00
2022-12-16T23:51:35.210Z,69.57
2022-12-16T23:54:21.067Z,66.35
2022-12-16T23:57:06.156Z,68.38
2022-12-16T23:59:51.824Z,65.55
